sensor_id;sensor_type;location;lat;lon;timestamp;P1;durP1;ratioP1;P2;durP2;ratioP2
20743;SDS011;56303;52.160;-0.428;2023-12-20T00:02:12;6.93;;;2.97;;
20743;SDS011;56303;52.160;-0.428;2023-12-20T00:04:39;7.83;;;2.50;;
20743;SDS011;56303;52.160;-0.428;2023-12-20T00:07:06;5.30;;;2.17;;
20743;SDS011;56303;52.160;-0.428;2023-12-20T00:09:33;10.90;;;3.30;;
20743;SDS011;56303;52.160;-0.428;2023-12-20T00:12:00;9.50;;;3.63;;
20743;SDS011;56303;52.160;-0.428;2023-12-20T00:14:27;10.40;;;2.83;;
20743;SDS011;56303;52.160;-0.428;2023-12-20T00:16:54;8.47;;;3.10;;
20743;SDS011;56303;52.160;-0.428;2023-12-20T00:19:21;8.07;;;2.43;;
20743;SDS011;56303;52.160;-0.428;2023-12-20T00:21:48;6.37;;;2.73;;
20743;SDS011;56303;52.160;-0.428;2023-12-20T00:24:15;9.17;;;2.90;;
20743;SDS011;56303;52.160;-0.428;2023-12-20T00:26:42;8.73;;;2.83;;
20743;SDS011;56303;52.160;-0.428;2023-12-20T00:29:09;9.27;;;3.20;;
20743;SDS011;56303;52.160;-0.428;2023-12-20T00:31:36;10.37;;;2.73;;
20743;SDS011;56303;52.160;-0.428;2023-12-20T00:34:03;10.77;;;2.70;;
20743;SDS011;56303;52.160;-0.428;2023-12-20T00:36:30;10.93;;;2.53;;
20743;SDS011;56303;52.160;-0.428;2023-12-20T00:38:57;7.80;;;2.57;;
20743;SDS011;56303;52.160;-0.428;2023-12-20T00:41:23;5.63;;;2.30;;
20743;SDS011;56303;52.160;-0.428;2023-12-20T00:43:50;12.40;;;2.90;;
20743;SDS011;56303;52.160;-0.428;2023-12-20T00:46:17;12.50;;;3.30;;
20743;SDS011;56303;52.160;-0.428;2023-12-20T00:48:44;7.87;;;2.77;;
20743;SDS011;56303;52.160;-0.428;2023-12-20T00:51:12;9.97;;;3.17;;
20743;SDS011;56303;52.160;-0.428;2023-12-20T00:53:39;6.07;;;2.20;;
20743;SDS011;56303;52.160;-0.428;2023-12-20T00:56:06;9.07;;;2.27;;
20743;SDS011;56303;52.160;-0.428;2023-12-20T00:58:33;8.27;;;4.07;;
20743;SDS011;56303;52.160;-0.428;2023-12-20T01:00:59;7.70;;;3.00;;
20743;SDS011;56303;52.160;-0.428;2023-12-20T01:03:26;10.63;;;2.83;;
20743;SDS011;56303;52.160;-0.428;2023-12-20T01:05:53;10.10;;;2.77;;
20743;SDS011;56303;52.160;-0.428;2023-12-20T01:08:20;9.33;;;3.10;;
20743;SDS011;56303;52.160;-0.428;2023-12-20T01:10:47;7.13;;;2.37;;
20743;SDS011;56303;52.160;-0.428;2023-12-20T01:13:14;9.73;;;3.43;;
20743;SDS011;56303;52.160;-0.428;2023-12-20T01:15:41;9.27;;;2.87;;
20743;SDS011;56303;52.160;-0.428;2023-12-20T01:18:08;8.77;;;2.53;;
20743;SDS011;56303;52.160;-0.428;2023-12-20T01:20:35;8.10;;;2.97;;
20743;SDS011;56303;52.160;-0.428;2023-12-20T01:23:02;9.53;;;2.70;;
20743;SDS011;56303;52.160;-0.428;2023-12-20T01:25:29;12.57;;;3.30;;
20743;SDS011;56303;52.160;-0.428;2023-12-20T01:27:56;7.17;;;2.67;;
20743;SDS011;56303;52.160;-0.428;2023-12-20T01:30:23;9.87;;;2.83;;
20743;SDS011;56303;52.160;-0.428;2023-12-20T01:32:50;8.40;;;2.17;;
20743;SDS011;56303;52.160;-0.428;2023-12-20T01:35:17;7.27;;;2.70;;
20743;SDS011;56303;52.160;-0.428;2023-12-20T01:37:45;10.97;;;3.50;;
20743;SDS011;56303;52.160;-0.428;2023-12-20T01:40:12;8.70;;;2.97;;
20743;SDS011;56303;52.160;-0.428;2023-12-20T01:42:39;8.00;;;3.53;;
20743;SDS011;56303;52.160;-0.428;2023-12-20T01:45:07;7.40;;;3.03;;
20743;SDS011;56303;52.160;-0.428;2023-12-20T01:47:34;10.57;;;3.80;;
20743;SDS011;56303;52.160;-0.428;2023-12-20T01:50:02;11.47;;;2.73;;
20743;SDS011;56303;52.160;-0.428;2023-12-20T01:52:30;7.83;;;2.43;;
20743;SDS011;56303;52.160;-0.428;2023-12-20T01:55:00;8.40;;;2.90;;
20743;SDS011;56303;52.160;-0.428;2023-12-20T01:57:29;9.33;;;4.07;;
20743;SDS011;56303;52.160;-0.428;2023-12-20T01:59:57;9.97;;;2.77;;
20743;SDS011;56303;52.160;-0.428;2023-12-20T02:02:25;7.13;;;2.33;;
20743;SDS011;56303;52.160;-0.428;2023-12-20T02:04:53;8.53;;;3.23;;
20743;SDS011;56303;52.160;-0.428;2023-12-20T02:07:21;10.83;;;2.93;;
20743;SDS011;56303;52.160;-0.428;2023-12-20T02:09:49;8.03;;;2.70;;
20743;SDS011;56303;52.160;-0.428;2023-12-20T02:12:16;7.80;;;3.17;;
20743;SDS011;56303;52.160;-0.428;2023-12-20T02:14:44;8.87;;;2.80;;
20743;SDS011;56303;52.160;-0.428;2023-12-20T02:17:11;7.47;;;2.50;;
20743;SDS011;56303;52.160;-0.428;2023-12-20T02:19:38;9.40;;;2.93;;
20743;SDS011;56303;52.160;-0.428;2023-12-20T02:22:07;10.00;;;3.07;;
20743;SDS011;56303;52.160;-0.428;2023-12-20T02:24:35;12.43;;;3.30;;
20743;SDS011;56303;52.160;-0.428;2023-12-20T02:27:03;8.73;;;3.03;;
20743;SDS011;56303;52.160;-0.428;2023-12-20T02:29:32;7.70;;;2.30;;
20743;SDS011;56303;52.160;-0.428;2023-12-20T02:31:59;12.80;;;3.57;;
20743;SDS011;56303;52.160;-0.428;2023-12-20T02:34:26;11.33;;;2.50;;
20743;SDS011;56303;52.160;-0.428;2023-12-20T02:36:53;8.37;;;2.67;;
20743;SDS011;56303;52.160;-0.428;2023-12-20T02:39:20;7.93;;;2.47;;
20743;SDS011;56303;52.160;-0.428;2023-12-20T02:41:48;6.33;;;2.87;;
20743;SDS011;56303;52.160;-0.428;2023-12-20T02:44:15;8.03;;;2.80;;
20743;SDS011;56303;52.160;-0.428;2023-12-20T02:46:42;7.50;;;2.30;;
20743;SDS011;56303;52.160;-0.428;2023-12-20T02:49:09;11.63;;;3.40;;
20743;SDS011;56303;52.160;-0.428;2023-12-20T02:51:36;8.97;;;2.43;;
20743;SDS011;56303;52.160;-0.428;2023-12-20T02:54:05;10.20;;;2.37;;
20743;SDS011;56303;52.160;-0.428;2023-12-20T02:56:32;10.27;;;2.50;;
20743;SDS011;56303;52.160;-0.428;2023-12-20T02:58:59;15.00;;;3.60;;
20743;SDS011;56303;52.160;-0.428;2023-12-20T03:01:27;11.17;;;2.30;;
20743;SDS011;56303;52.160;-0.428;2023-12-20T03:03:55;10.07;;;2.80;;
20743;SDS011;56303;52.160;-0.428;2023-12-20T03:06:22;9.40;;;3.10;;
20743;SDS011;56303;52.160;-0.428;2023-12-20T03:08:50;10.73;;;3.00;;
20743;SDS011;56303;52.160;-0.428;2023-12-20T03:11:16;14.33;;;3.40;;
20743;SDS011;56303;52.160;-0.428;2023-12-20T03:13:43;7.30;;;1.90;;
20743;SDS011;56303;52.160;-0.428;2023-12-20T03:16:11;10.33;;;2.70;;
20743;SDS011;56303;52.160;-0.428;2023-12-20T03:18:38;8.60;;;2.47;;
20743;SDS011;56303;52.160;-0.428;2023-12-20T03:21:05;11.03;;;2.50;;
20743;SDS011;56303;52.160;-0.428;2023-12-20T03:23:32;10.50;;;2.80;;
20743;SDS011;56303;52.160;-0.428;2023-12-20T03:25:59;9.37;;;2.77;;
20743;SDS011;56303;52.160;-0.428;2023-12-20T03:28:27;8.67;;;2.90;;
20743;SDS011;56303;52.160;-0.428;2023-12-20T03:30:54;8.40;;;2.50;;
20743;SDS011;56303;52.160;-0.428;2023-12-20T03:33:21;7.63;;;2.83;;
20743;SDS011;56303;52.160;-0.428;2023-12-20T03:35:48;10.03;;;2.70;;
20743;SDS011;56303;52.160;-0.428;2023-12-20T03:38:15;8.60;;;2.63;;
20743;SDS011;56303;52.160;-0.428;2023-12-20T03:40:42;7.10;;;2.20;;
20743;SDS011;56303;52.160;-0.428;2023-12-20T03:43:09;9.27;;;2.97;;
20743;SDS011;56303;52.160;-0.428;2023-12-20T03:45:36;6.97;;;2.73;;
20743;SDS011;56303;52.160;-0.428;2023-12-20T03:48:03;9.30;;;2.90;;
20743;SDS011;56303;52.160;-0.428;2023-12-20T03:50:30;5.77;;;2.43;;
20743;SDS011;56303;52.160;-0.428;2023-12-20T03:52:57;9.90;;;2.30;;
20743;SDS011;56303;52.160;-0.428;2023-12-20T03:55:24;16.67;;;3.27;;
20743;SDS011;56303;52.160;-0.428;2023-12-20T03:57:51;10.03;;;2.57;;
20743;SDS011;56303;52.160;-0.428;2023-12-20T04:00:18;11.37;;;2.60;;
20743;SDS011;56303;52.160;-0.428;2023-12-20T04:02:45;8.87;;;2.93;;
20743;SDS011;56303;52.160;-0.428;2023-12-20T04:05:12;9.83;;;2.97;;
20743;SDS011;56303;52.160;-0.428;2023-12-20T04:07:39;10.90;;;3.43;;
20743;SDS011;56303;52.160;-0.428;2023-12-20T04:10:06;8.57;;;2.23;;
20743;SDS011;56303;52.160;-0.428;2023-12-20T04:12:34;11.63;;;2.97;;
20743;SDS011;56303;52.160;-0.428;2023-12-20T04:15:01;5.87;;;2.57;;
20743;SDS011;56303;52.160;-0.428;2023-12-20T04:17:35;12.43;;;3.03;;
20743;SDS011;56303;52.160;-0.428;2023-12-20T04:20:03;7.90;;;2.73;;
20743;SDS011;56303;52.160;-0.428;2023-12-20T04:22:30;9.07;;;3.00;;
20743;SDS011;56303;52.160;-0.428;2023-12-20T04:24:57;7.97;;;2.60;;
20743;SDS011;56303;52.160;-0.428;2023-12-20T04:27:24;7.27;;;2.37;;
20743;SDS011;56303;52.160;-0.428;2023-12-20T04:29:51;13.00;;;3.47;;
20743;SDS011;56303;52.160;-0.428;2023-12-20T04:32:18;7.57;;;2.53;;
20743;SDS011;56303;52.160;-0.428;2023-12-20T04:34:45;12.90;;;3.13;;
20743;SDS011;56303;52.160;-0.428;2023-12-20T04:37:11;6.83;;;2.37;;
20743;SDS011;56303;52.160;-0.428;2023-12-20T04:39:38;12.00;;;2.57;;
20743;SDS011;56303;52.160;-0.428;2023-12-20T04:42:07;8.07;;;2.40;;
20743;SDS011;56303;52.160;-0.428;2023-12-20T04:44:34;12.73;;;3.20;;
20743;SDS011;56303;52.160;-0.428;2023-12-20T04:47:00;13.70;;;2.73;;
20743;SDS011;56303;52.160;-0.428;2023-12-20T04:49:27;10.73;;;2.80;;
20743;SDS011;56303;52.160;-0.428;2023-12-20T04:51:54;11.83;;;3.13;;
20743;SDS011;56303;52.160;-0.428;2023-12-20T04:54:22;9.83;;;2.37;;
20743;SDS011;56303;52.160;-0.428;2023-12-20T04:56:49;7.37;;;2.20;;
20743;SDS011;56303;52.160;-0.428;2023-12-20T04:59:16;8.20;;;2.30;;
20743;SDS011;56303;52.160;-0.428;2023-12-20T05:01:43;6.73;;;2.67;;
20743;SDS011;56303;52.160;-0.428;2023-12-20T05:04:10;7.17;;;1.90;;
20743;SDS011;56303;52.160;-0.428;2023-12-20T05:06:36;5.90;;;2.20;;
20743;SDS011;56303;52.160;-0.428;2023-12-20T05:09:04;9.17;;;3.73;;
20743;SDS011;56303;52.160;-0.428;2023-12-20T05:11:30;10.47;;;2.27;;
20743;SDS011;56303;52.160;-0.428;2023-12-20T05:13:57;8.00;;;2.73;;
20743;SDS011;56303;52.160;-0.428;2023-12-20T05:16:24;7.40;;;2.33;;
20743;SDS011;56303;52.160;-0.428;2023-12-20T05:18:51;9.27;;;2.60;;
20743;SDS011;56303;52.160;-0.428;2023-12-20T05:21:19;6.83;;;2.37;;
20743;SDS011;56303;52.160;-0.428;2023-12-20T05:23:46;10.23;;;2.63;;
20743;SDS011;56303;52.160;-0.428;2023-12-20T05:26:13;13.00;;;2.30;;
20743;SDS011;56303;52.160;-0.428;2023-12-20T05:28:39;9.43;;;2.80;;
20743;SDS011;56303;52.160;-0.428;2023-12-20T05:31:06;11.57;;;3.13;;
20743;SDS011;56303;52.160;-0.428;2023-12-20T05:33:33;11.80;;;2.77;;
20743;SDS011;56303;52.160;-0.428;2023-12-20T05:36:00;9.30;;;3.20;;
20743;SDS011;56303;52.160;-0.428;2023-12-20T05:38:27;9.67;;;2.13;;
20743;SDS011;56303;52.160;-0.428;2023-12-20T05:40:54;7.50;;;2.97;;
20743;SDS011;56303;52.160;-0.428;2023-12-20T05:43:21;9.10;;;2.27;;
20743;SDS011;56303;52.160;-0.428;2023-12-20T05:45:48;8.00;;;2.30;;
20743;SDS011;56303;52.160;-0.428;2023-12-20T05:48:15;8.93;;;2.57;;
20743;SDS011;56303;52.160;-0.428;2023-12-20T05:50:42;8.63;;;2.67;;
20743;SDS011;56303;52.160;-0.428;2023-12-20T05:53:09;6.87;;;2.60;;
20743;SDS011;56303;52.160;-0.428;2023-12-20T05:55:36;7.53;;;2.60;;
20743;SDS011;56303;52.160;-0.428;2023-12-20T05:58:03;11.87;;;3.63;;
20743;SDS011;56303;52.160;-0.428;2023-12-20T06:00:31;7.73;;;2.83;;
20743;SDS011;56303;52.160;-0.428;2023-12-20T06:02:58;10.50;;;2.53;;
20743;SDS011;56303;52.160;-0.428;2023-12-20T06:05:25;7.87;;;2.83;;
20743;SDS011;56303;52.160;-0.428;2023-12-20T06:07:52;8.60;;;2.50;;
20743;SDS011;56303;52.160;-0.428;2023-12-20T06:10:19;11.67;;;3.10;;
20743;SDS011;56303;52.160;-0.428;2023-12-20T06:12:46;7.67;;;2.43;;
20743;SDS011;56303;52.160;-0.428;2023-12-20T06:15:16;7.73;;;2.47;;
20743;SDS011;56303;52.160;-0.428;2023-12-20T06:17:43;8.77;;;2.70;;
20743;SDS011;56303;52.160;-0.428;2023-12-20T06:20:10;9.37;;;2.83;;
20743;SDS011;56303;52.160;-0.428;2023-12-20T06:22:37;7.80;;;2.40;;
20743;SDS011;56303;52.160;-0.428;2023-12-20T06:25:05;9.87;;;2.40;;
20743;SDS011;56303;52.160;-0.428;2023-12-20T06:27:33;12.63;;;3.60;;
20743;SDS011;56303;52.160;-0.428;2023-12-20T06:30:00;10.43;;;2.80;;
20743;SDS011;56303;52.160;-0.428;2023-12-20T06:32:27;6.63;;;2.17;;
20743;SDS011;56303;52.160;-0.428;2023-12-20T06:34:55;15.37;;;3.80;;
20743;SDS011;56303;52.160;-0.428;2023-12-20T06:37:22;9.43;;;2.73;;
20743;SDS011;56303;52.160;-0.428;2023-12-20T06:39:49;5.77;;;2.60;;
20743;SDS011;56303;52.160;-0.428;2023-12-20T06:42:16;6.60;;;2.53;;
20743;SDS011;56303;52.160;-0.428;2023-12-20T06:44:43;11.20;;;3.17;;
20743;SDS011;56303;52.160;-0.428;2023-12-20T06:47:10;7.77;;;2.77;;
20743;SDS011;56303;52.160;-0.428;2023-12-20T06:49:37;11.97;;;2.90;;
20743;SDS011;56303;52.160;-0.428;2023-12-20T06:52:04;12.10;;;3.20;;
20743;SDS011;56303;52.160;-0.428;2023-12-20T06:54:31;9.20;;;2.90;;
20743;SDS011;56303;52.160;-0.428;2023-12-20T06:57:00;7.07;;;2.40;;
20743;SDS011;56303;52.160;-0.428;2023-12-20T06:59:29;9.37;;;2.80;;
20743;SDS011;56303;52.160;-0.428;2023-12-20T07:01:56;8.10;;;2.60;;
20743;SDS011;56303;52.160;-0.428;2023-12-20T07:04:23;9.63;;;2.60;;
20743;SDS011;56303;52.160;-0.428;2023-12-20T07:06:50;13.10;;;3.33;;
20743;SDS011;56303;52.160;-0.428;2023-12-20T07:09:18;14.60;;;2.50;;
20743;SDS011;56303;52.160;-0.428;2023-12-20T07:11:45;12.40;;;2.90;;
20743;SDS011;56303;52.160;-0.428;2023-12-20T07:14:12;9.33;;;3.60;;
20743;SDS011;56303;52.160;-0.428;2023-12-20T07:16:39;10.77;;;3.03;;
20743;SDS011;56303;52.160;-0.428;2023-12-20T07:19:06;7.63;;;2.77;;
20743;SDS011;56303;52.160;-0.428;2023-12-20T07:21:34;9.90;;;2.80;;
20743;SDS011;56303;52.160;-0.428;2023-12-20T07:24:01;12.53;;;3.27;;
20743;SDS011;56303;52.160;-0.428;2023-12-20T07:26:28;6.20;;;2.90;;
20743;SDS011;56303;52.160;-0.428;2023-12-20T07:28:55;14.07;;;3.90;;
20743;SDS011;56303;52.160;-0.428;2023-12-20T07:31:22;11.23;;;3.07;;
20743;SDS011;56303;52.160;-0.428;2023-12-20T07:33:50;9.67;;;3.50;;
20743;SDS011;56303;52.160;-0.428;2023-12-20T07:36:19;7.03;;;2.67;;
20743;SDS011;56303;52.160;-0.428;2023-12-20T07:38:46;8.70;;;2.87;;
20743;SDS011;56303;52.160;-0.428;2023-12-20T07:41:13;12.07;;;3.00;;
20743;SDS011;56303;52.160;-0.428;2023-12-20T07:43:42;9.53;;;3.07;;
20743;SDS011;56303;52.160;-0.428;2023-12-20T07:46:08;8.73;;;2.87;;
20743;SDS011;56303;52.160;-0.428;2023-12-20T07:48:35;7.53;;;3.03;;
20743;SDS011;56303;52.160;-0.428;2023-12-20T07:51:03;10.23;;;2.63;;
20743;SDS011;56303;52.160;-0.428;2023-12-20T07:53:32;9.10;;;5.17;;
20743;SDS011;56303;52.160;-0.428;2023-12-20T07:55:59;13.47;;;3.53;;
20743;SDS011;56303;52.160;-0.428;2023-12-20T07:58:26;13.10;;;2.67;;
20743;SDS011;56303;52.160;-0.428;2023-12-20T08:01:11;6.77;;;2.47;;
20743;SDS011;56303;52.160;-0.428;2023-12-20T08:03:40;8.50;;;2.40;;
20743;SDS011;56303;52.160;-0.428;2023-12-20T08:06:07;8.03;;;2.73;;
20743;SDS011;56303;52.160;-0.428;2023-12-20T08:08:34;10.67;;;2.83;;
20743;SDS011;56303;52.160;-0.428;2023-12-20T08:11:01;8.37;;;2.47;;
20743;SDS011;56303;52.160;-0.428;2023-12-20T08:13:28;15.07;;;3.03;;
20743;SDS011;56303;52.160;-0.428;2023-12-20T08:15:55;8.37;;;2.73;;
20743;SDS011;56303;52.160;-0.428;2023-12-20T08:18:22;10.40;;;3.70;;
20743;SDS011;56303;52.160;-0.428;2023-12-20T08:20:49;8.10;;;2.63;;
20743;SDS011;56303;52.160;-0.428;2023-12-20T08:23:19;10.50;;;2.80;;
20743;SDS011;56303;52.160;-0.428;2023-12-20T08:25:50;9.80;;;3.40;;
20743;SDS011;56303;52.160;-0.428;2023-12-20T08:28:17;9.67;;;2.73;;
20743;SDS011;56303;52.160;-0.428;2023-12-20T08:30:44;7.10;;;2.60;;
20743;SDS011;56303;52.160;-0.428;2023-12-20T08:33:11;9.27;;;2.90;;
20743;SDS011;56303;52.160;-0.428;2023-12-20T08:35:39;7.33;;;2.93;;
20743;SDS011;56303;52.160;-0.428;2023-12-20T08:38:15;8.83;;;3.47;;
20743;SDS011;56303;52.160;-0.428;2023-12-20T08:40:43;9.10;;;3.33;;
20743;SDS011;56303;52.160;-0.428;2023-12-20T08:43:10;8.87;;;2.73;;
20743;SDS011;56303;52.160;-0.428;2023-12-20T08:45:37;10.30;;;3.10;;
20743;SDS011;56303;52.160;-0.428;2023-12-20T08:48:05;8.43;;;2.90;;
20743;SDS011;56303;52.160;-0.428;2023-12-20T08:50:35;11.03;;;3.53;;
20743;SDS011;56303;52.160;-0.428;2023-12-20T08:53:03;7.53;;;2.40;;
20743;SDS011;56303;52.160;-0.428;2023-12-20T08:55:30;10.03;;;3.00;;
20743;SDS011;56303;52.160;-0.428;2023-12-20T08:57:57;8.97;;;3.43;;
20743;SDS011;56303;52.160;-0.428;2023-12-20T09:00:24;11.00;;;3.03;;
20743;SDS011;56303;52.160;-0.428;2023-12-20T09:02:54;10.07;;;2.73;;
20743;SDS011;56303;52.160;-0.428;2023-12-20T09:05:21;9.63;;;2.50;;
20743;SDS011;56303;52.160;-0.428;2023-12-20T09:07:49;7.20;;;2.57;;
20743;SDS011;56303;52.160;-0.428;2023-12-20T09:10:16;11.47;;;2.80;;
20743;SDS011;56303;52.160;-0.428;2023-12-20T09:12:49;10.27;;;2.83;;
20743;SDS011;56303;52.160;-0.428;2023-12-20T09:15:17;9.20;;;2.83;;
20743;SDS011;56303;52.160;-0.428;2023-12-20T09:17:44;10.07;;;3.27;;
20743;SDS011;56303;52.160;-0.428;2023-12-20T09:20:11;9.10;;;2.60;;
20743;SDS011;56303;52.160;-0.428;2023-12-20T09:22:40;10.63;;;3.00;;
20743;SDS011;56303;52.160;-0.428;2023-12-20T09:25:08;7.87;;;3.07;;
20743;SDS011;56303;52.160;-0.428;2023-12-20T09:27:37;11.10;;;2.83;;
20743;SDS011;56303;52.160;-0.428;2023-12-20T09:30:04;9.23;;;2.67;;
20743;SDS011;56303;52.160;-0.428;2023-12-20T09:32:32;10.30;;;3.70;;
20743;SDS011;56303;52.160;-0.428;2023-12-20T09:34:59;9.63;;;2.57;;
20743;SDS011;56303;52.160;-0.428;2023-12-20T09:37:26;7.03;;;2.73;;
20743;SDS011;56303;52.160;-0.428;2023-12-20T09:39:54;10.43;;;2.83;;
20743;SDS011;56303;52.160;-0.428;2023-12-20T09:42:24;8.50;;;2.30;;
20743;SDS011;56303;52.160;-0.428;2023-12-20T09:45:07;8.80;;;2.77;;
20743;SDS011;56303;52.160;-0.428;2023-12-20T09:47:36;10.50;;;3.33;;
20743;SDS011;56303;52.160;-0.428;2023-12-20T09:50:03;8.57;;;2.67;;
20743;SDS011;56303;52.160;-0.428;2023-12-20T09:52:30;7.03;;;2.70;;
20743;SDS011;56303;52.160;-0.428;2023-12-20T09:54:59;6.67;;;2.57;;
20743;SDS011;56303;52.160;-0.428;2023-12-20T09:57:28;10.37;;;2.47;;
20743;SDS011;56303;52.160;-0.428;2023-12-20T09:59:55;8.00;;;2.70;;
20743;SDS011;56303;52.160;-0.428;2023-12-20T10:02:21;6.73;;;2.43;;
20743;SDS011;56303;52.160;-0.428;2023-12-20T10:04:52;9.47;;;2.40;;
20743;SDS011;56303;52.160;-0.428;2023-12-20T10:07:20;9.43;;;3.27;;
20743;SDS011;56303;52.160;-0.428;2023-12-20T10:09:48;8.83;;;2.77;;
20743;SDS011;56303;52.160;-0.428;2023-12-20T10:12:16;7.27;;;2.43;;
20743;SDS011;56303;52.160;-0.428;2023-12-20T10:14:43;8.80;;;2.63;;
20743;SDS011;56303;52.160;-0.428;2023-12-20T10:17:10;9.07;;;2.57;;
20743;SDS011;56303;52.160;-0.428;2023-12-20T10:19:37;5.87;;;2.20;;
20743;SDS011;56303;52.160;-0.428;2023-12-20T10:22:04;6.57;;;2.13;;
20743;SDS011;56303;52.160;-0.428;2023-12-20T10:24:32;9.00;;;2.60;;
20743;SDS011;56303;52.160;-0.428;2023-12-20T10:27:05;6.97;;;2.40;;
20743;SDS011;56303;52.160;-0.428;2023-12-20T10:29:36;7.20;;;2.10;;
20743;SDS011;56303;52.160;-0.428;2023-12-20T10:32:23;5.13;;;2.30;;
20743;SDS011;56303;52.160;-0.428;2023-12-20T10:34:52;3.67;;;1.57;;
20743;SDS011;56303;52.160;-0.428;2023-12-20T10:37:20;4.33;;;1.57;;
20743;SDS011;56303;52.160;-0.428;2023-12-20T10:39:52;8.37;;;2.00;;
20743;SDS011;56303;52.160;-0.428;2023-12-20T10:42:24;4.97;;;2.00;;
20743;SDS011;56303;52.160;-0.428;2023-12-20T10:44:53;7.20;;;1.70;;
20743;SDS011;56303;52.160;-0.428;2023-12-20T10:47:20;7.93;;;2.13;;
20743;SDS011;56303;52.160;-0.428;2023-12-20T10:49:47;6.33;;;1.87;;
20743;SDS011;56303;52.160;-0.428;2023-12-20T10:52:14;6.53;;;2.23;;
20743;SDS011;56303;52.160;-0.428;2023-12-20T10:54:44;4.50;;;1.80;;
20743;SDS011;56303;52.160;-0.428;2023-12-20T10:57:12;4.37;;;1.70;;
20743;SDS011;56303;52.160;-0.428;2023-12-20T10:59:40;4.03;;;1.53;;
20743;SDS011;56303;52.160;-0.428;2023-12-20T11:02:09;5.70;;;2.40;;
20743;SDS011;56303;52.160;-0.428;2023-12-20T11:04:56;5.43;;;1.43;;
20743;SDS011;56303;52.160;-0.428;2023-12-20T11:08:03;7.10;;;1.70;;
20743;SDS011;56303;52.160;-0.428;2023-12-20T11:13:16;4.40;;;1.67;;
20743;SDS011;56303;52.160;-0.428;2023-12-20T11:15:49;10.30;;;2.27;;
20743;SDS011;56303;52.160;-0.428;2023-12-20T11:18:16;5.07;;;1.60;;
20743;SDS011;56303;52.160;-0.428;2023-12-20T11:20:43;6.37;;;2.03;;
20743;SDS011;56303;52.160;-0.428;2023-12-20T11:23:10;5.67;;;1.43;;
20743;SDS011;56303;52.160;-0.428;2023-12-20T11:25:53;4.37;;;1.43;;
20743;SDS011;56303;52.160;-0.428;2023-12-20T11:28:23;7.50;;;2.07;;
20743;SDS011;56303;52.160;-0.428;2023-12-20T11:30:52;5.50;;;2.20;;
20743;SDS011;56303;52.160;-0.428;2023-12-20T11:33:23;7.13;;;2.10;;
20743;SDS011;56303;52.160;-0.428;2023-12-20T11:35:56;6.77;;;2.03;;
20743;SDS011;56303;52.160;-0.428;2023-12-20T11:38:23;5.03;;;1.90;;
20743;SDS011;56303;52.160;-0.428;2023-12-20T11:40:51;6.03;;;2.03;;
20743;SDS011;56303;52.160;-0.428;2023-12-20T11:43:36;6.33;;;2.37;;
20743;SDS011;56303;52.160;-0.428;2023-12-20T11:46:04;6.57;;;1.93;;
20743;SDS011;56303;52.160;-0.428;2023-12-20T11:48:33;6.47;;;2.13;;
20743;SDS011;56303;52.160;-0.428;2023-12-20T11:51:11;5.90;;;1.77;;
20743;SDS011;56303;52.160;-0.428;2023-12-20T11:53:39;8.03;;;2.20;;
20743;SDS011;56303;52.160;-0.428;2023-12-20T11:56:07;8.47;;;2.30;;
20743;SDS011;56303;52.160;-0.428;2023-12-20T11:58:34;5.90;;;2.13;;
20743;SDS011;56303;52.160;-0.428;2023-12-20T12:01:01;4.60;;;1.83;;
20743;SDS011;56303;52.160;-0.428;2023-12-20T12:03:29;7.50;;;2.30;;
20743;SDS011;56303;52.160;-0.428;2023-12-20T12:05:56;4.63;;;1.87;;
20743;SDS011;56303;52.160;-0.428;2023-12-20T12:08:24;10.13;;;2.00;;
20743;SDS011;56303;52.160;-0.428;2023-12-20T12:10:51;4.13;;;1.70;;
20743;SDS011;56303;52.160;-0.428;2023-12-20T12:13:19;4.27;;;2.20;;
20743;SDS011;56303;52.160;-0.428;2023-12-20T12:15:46;6.00;;;1.97;;
20743;SDS011;56303;52.160;-0.428;2023-12-20T12:18:17;7.93;;;1.90;;
20743;SDS011;56303;52.160;-0.428;2023-12-20T12:20:44;4.43;;;1.50;;
20743;SDS011;56303;52.160;-0.428;2023-12-20T12:23:12;4.07;;;1.67;;
20743;SDS011;56303;52.160;-0.428;2023-12-20T12:25:39;5.67;;;1.47;;
20743;SDS011;56303;52.160;-0.428;2023-12-20T12:28:09;5.10;;;1.60;;
20743;SDS011;56303;52.160;-0.428;2023-12-20T12:30:36;3.53;;;1.50;;
20743;SDS011;56303;52.160;-0.428;2023-12-20T12:33:11;3.87;;;1.37;;
20743;SDS011;56303;52.160;-0.428;2023-12-20T12:35:39;1.73;;;1.00;;
20743;SDS011;56303;52.160;-0.428;2023-12-20T12:38:07;4.90;;;1.53;;
20743;SDS011;56303;52.160;-0.428;2023-12-20T12:40:35;3.83;;;1.00;;
20743;SDS011;56303;52.160;-0.428;2023-12-20T12:43:05;2.87;;;1.13;;
20743;SDS011;56303;52.160;-0.428;2023-12-20T12:45:33;4.43;;;1.30;;
20743;SDS011;56303;52.160;-0.428;2023-12-20T12:48:00;2.37;;;1.47;;
20743;SDS011;56303;52.160;-0.428;2023-12-20T12:50:27;3.33;;;1.80;;
20743;SDS011;56303;52.160;-0.428;2023-12-20T12:52:55;2.80;;;1.03;;
20743;SDS011;56303;52.160;-0.428;2023-12-20T12:55:22;2.67;;;1.57;;
20743;SDS011;56303;52.160;-0.428;2023-12-20T12:57:49;1.83;;;1.07;;
20743;SDS011;56303;52.160;-0.428;2023-12-20T13:00:16;1.53;;;0.80;;
20743;SDS011;56303;52.160;-0.428;2023-12-20T13:02:43;2.30;;;0.80;;
20743;SDS011;56303;52.160;-0.428;2023-12-20T13:05:10;3.53;;;1.07;;
20743;SDS011;56303;52.160;-0.428;2023-12-20T13:07:37;2.80;;;1.03;;
20743;SDS011;56303;52.160;-0.428;2023-12-20T13:10:05;1.20;;;0.77;;
20743;SDS011;56303;52.160;-0.428;2023-12-20T13:12:32;3.17;;;0.90;;
20743;SDS011;56303;52.160;-0.428;2023-12-20T13:14:59;1.33;;;0.90;;
20743;SDS011;56303;52.160;-0.428;2023-12-20T13:17:26;4.60;;;1.27;;
20743;SDS011;56303;52.160;-0.428;2023-12-20T13:19:56;4.50;;;0.80;;
20743;SDS011;56303;52.160;-0.428;2023-12-20T13:22:23;3.33;;;1.23;;
20743;SDS011;56303;52.160;-0.428;2023-12-20T13:24:50;3.37;;;0.90;;
20743;SDS011;56303;52.160;-0.428;2023-12-20T13:27:17;2.20;;;0.73;;
20743;SDS011;56303;52.160;-0.428;2023-12-20T13:29:44;3.37;;;0.80;;
20743;SDS011;56303;52.160;-0.428;2023-12-20T13:32:11;1.93;;;1.00;;
20743;SDS011;56303;52.160;-0.428;2023-12-20T13:34:37;0.97;;;0.70;;
20743;SDS011;56303;52.160;-0.428;2023-12-20T13:37:04;3.80;;;1.40;;
20743;SDS011;56303;52.160;-0.428;2023-12-20T13:39:33;2.67;;;1.50;;
20743;SDS011;56303;52.160;-0.428;2023-12-20T13:42:00;4.37;;;1.90;;
20743;SDS011;56303;52.160;-0.428;2023-12-20T13:44:27;5.53;;;1.83;;
20743;SDS011;56303;52.160;-0.428;2023-12-20T13:46:54;4.70;;;1.30;;
20743;SDS011;56303;52.160;-0.428;2023-12-20T13:49:21;5.07;;;1.97;;
20743;SDS011;56303;52.160;-0.428;2023-12-20T13:51:52;4.53;;;1.47;;
20743;SDS011;56303;52.160;-0.428;2023-12-20T13:54:21;3.90;;;1.80;;
20743;SDS011;56303;52.160;-0.428;2023-12-20T13:56:48;9.00;;;1.83;;
20743;SDS011;56303;52.160;-0.428;2023-12-20T13:59:34;4.63;;;1.27;;
20743;SDS011;56303;52.160;-0.428;2023-12-20T14:02:01;4.20;;;1.60;;
20743;SDS011;56303;52.160;-0.428;2023-12-20T14:04:30;5.07;;;1.53;;
20743;SDS011;56303;52.160;-0.428;2023-12-20T14:07:08;2.70;;;1.30;;
20743;SDS011;56303;52.160;-0.428;2023-12-20T14:09:38;3.53;;;1.37;;
20743;SDS011;56303;52.160;-0.428;2023-12-20T14:12:05;3.07;;;1.50;;
20743;SDS011;56303;52.160;-0.428;2023-12-20T14:14:32;2.83;;;1.30;;
20743;SDS011;56303;52.160;-0.428;2023-12-20T14:16:59;4.93;;;1.50;;
20743;SDS011;56303;52.160;-0.428;2023-12-20T14:19:26;5.27;;;1.60;;
20743;SDS011;56303;52.160;-0.428;2023-12-20T14:21:53;3.23;;;1.30;;
20743;SDS011;56303;52.160;-0.428;2023-12-20T14:24:20;4.70;;;1.33;;
20743;SDS011;56303;52.160;-0.428;2023-12-20T14:26:47;2.57;;;1.27;;
20743;SDS011;56303;52.160;-0.428;2023-12-20T14:29:15;2.23;;;1.47;;
20743;SDS011;56303;52.160;-0.428;2023-12-20T14:31:42;1.00;;;0.70;;
20743;SDS011;56303;52.160;-0.428;2023-12-20T14:34:09;4.27;;;1.60;;
20743;SDS011;56303;52.160;-0.428;2023-12-20T14:36:36;2.83;;;1.30;;
20743;SDS011;56303;52.160;-0.428;2023-12-20T14:39:03;5.47;;;1.57;;